sensor_id;sensor_type;location;lat;lon;timestamp;temperature;humidity
6355;DHT22;3210;48.708;9.030;2023-04-20T18:30:42;5.50;99.90
6355;DHT22;3210;48.708;9.030;2023-04-20T18:33:09;5.50;92.10
6355;DHT22;3210;48.708;9.030;2023-04-20T18:35:36;5.50;99.90
6355;DHT22;3210;48.708;9.030;2023-04-20T18:38:02;5.50;99.90
6355;DHT22;3210;48.708;9.030;2023-04-20T18:40:30;5.50;99.90
6355;DHT22;3210;48.708;9.030;2023-04-20T18:42:57;5.50;99.90
6355;DHT22;3210;48.708;9.030;2023-04-20T18:45:23;5.60;99.90
6355;DHT22;3210;48.708;9.030;2023-04-20T18:47:52;5.60;99.90
6355;DHT22;3210;48.708;9.030;2023-04-20T18:50:19;5.60;99.90
6355;DHT22;3210;48.708;9.030;2023-04-20T18:52:45;5.60;97.70
6355;DHT22;3210;48.708;9.030;2023-04-20T18:55:12;5.60;93.40
6355;DHT22;3210;48.708;9.030;2023-04-20T18:57:39;5.60;91.80
6355;DHT22;3210;48.708;9.030;2023-04-20T19:00:07;5.60;71.40
6355;DHT22;3210;48.708;9.030;2023-04-20T19:02:34;5.70;75.90
6355;DHT22;3210;48.708;9.030;2023-04-20T19:05:02;5.60;51.20
6355;DHT22;3210;48.708;9.030;2023-04-20T19:07:29;5.60;67.10
6355;DHT22;3210;48.708;9.030;2023-04-20T19:09:56;5.60;99.90
6355;DHT22;3210;48.708;9.030;2023-04-20T19:12:23;5.60;97.60
6355;DHT22;3210;48.708;9.030;2023-04-20T19:14:49;5.70;98.10
6355;DHT22;3210;48.708;9.030;2023-04-20T19:17:16;5.70;99.90
6355;DHT22;3210;48.708;9.030;2023-04-20T19:19:43;5.60;99.90
6355;DHT22;3210;48.708;9.030;2023-04-20T19:22:11;5.70;96.90
6355;DHT22;3210;48.708;9.030;2023-04-20T19:24:38;5.60;98.10
6355;DHT22;3210;48.708;9.030;2023-04-20T19:27:05;5.60;99.90
6355;DHT22;3210;48.708;9.030;2023-04-20T19:29:32;5.60;99.90
6355;DHT22;3210;48.708;9.030;2023-04-20T19:31:59;5.60;99.90
6355;DHT22;3210;48.708;9.030;2023-04-20T19:34:26;5.60;99.90
6355;DHT22;3210;48.708;9.030;2023-04-20T19:36:53;5.60;99.90
6355;DHT22;3210;48.708;9.030;2023-04-20T19:39:21;5.70;99.90
6355;DHT22;3210;48.708;9.030;2023-04-20T19:41:48;5.70;99.90
6355;DHT22;3210;48.708;9.030;2023-04-20T19:44:14;5.60;99.90
6355;DHT22;3210;48.708;9.030;2023-04-20T19:46:41;5.60;99.90
6355;DHT22;3210;48.708;9.030;2023-04-20T19:49:08;5.60;99.90
6355;DHT22;3210;48.708;9.030;2023-04-20T19:51:35;5.60;99.90
6355;DHT22;3210;48.708;9.030;2023-04-20T19:54:03;5.50;99.90
6355;DHT22;3210;48.708;9.030;2023-04-20T19:56:31;5.50;99.90
6355;DHT22;3210;48.708;9.030;2023-04-20T19:58:58;5.40;99.90
6355;DHT22;3210;48.708;9.030;2023-04-20T20:01:25;5.40;99.90
6355;DHT22;3210;48.708;9.030;2023-04-20T20:03:51;5.40;99.90
6355;DHT22;3210;48.708;9.030;2023-04-20T20:06:18;5.40;99.90
6355;DHT22;3210;48.708;9.030;2023-04-20T20:08:46;5.40;99.90
6355;DHT22;3210;48.708;9.030;2023-04-20T20:11:12;5.40;99.90
6355;DHT22;3210;48.708;9.030;2023-04-20T20:13:41;5.50;99.90
6355;DHT22;3210;48.708;9.030;2023-04-20T20:16:07;5.50;99.90
6355;DHT22;3210;48.708;9.030;2023-04-20T20:18:35;5.50;99.90
6355;DHT22;3210;48.708;9.030;2023-04-20T20:21:02;5.50;99.90
6355;DHT22;3210;48.708;9.030;2023-04-20T20:23:29;5.50;99.90
6355;DHT22;3210;48.708;9.030;2023-04-20T20:25:56;5.50;99.90
6355;DHT22;3210;48.708;9.030;2023-04-20T20:28:23;5.50;99.90
6355;DHT22;3210;48.708;9.030;2023-04-20T20:30:51;5.60;99.90
6355;DHT22;3210;48.708;9.030;2023-04-20T20:33:17;5.40;99.90
6355;DHT22;3210;48.708;9.030;2023-04-20T20:35:44;5.50;1.00
6355;DHT22;3210;48.708;9.030;2023-04-20T20:38:12;5.40;99.90
6355;DHT22;3210;48.708;9.030;2023-04-20T20:40:39;5.40;1.00
6355;DHT22;3210;48.708;9.030;2023-04-20T20:43:06;5.40;99.90
6355;DHT22;3210;48.708;9.030;2023-04-20T20:45:33;5.40;99.90
6355;DHT22;3210;48.708;9.030;2023-04-20T20:48:01;5.40;99.90
6355;DHT22;3210;48.708;9.030;2023-04-20T20:50:28;5.30;99.90
6355;DHT22;3210;48.708;9.030;2023-04-20T20:52:54;5.30;99.90
6355;DHT22;3210;48.708;9.030;2023-04-20T20:55:21;5.20;99.90
6355;DHT22;3210;48.708;9.030;2023-04-20T20:57:48;5.10;99.90
6355;DHT22;3210;48.708;9.030;2023-04-20T21:00:16;5.10;1.00
6355;DHT22;3210;48.708;9.030;2023-04-20T21:02:43;5.00;1.00
6355;DHT22;3210;48.708;9.030;2023-04-20T21:05:11;5.00;1.00
6355;DHT22;3210;48.708;9.030;2023-04-20T21:07:38;4.90;1.00
6355;DHT22;3210;48.708;9.030;2023-04-20T21:10:05;4.90;1.00
6355;DHT22;3210;48.708;9.030;2023-04-20T21:12:32;4.80;1.00
6355;DHT22;3210;48.708;9.030;2023-04-20T21:14:59;4.70;1.00
6355;DHT22;3210;48.708;9.030;2023-04-20T21:17:26;4.60;1.00
6355;DHT22;3210;48.708;9.030;2023-04-20T21:19:53;4.40;1.00
6355;DHT22;3210;48.708;9.030;2023-04-20T21:22:21;4.30;1.00
6355;DHT22;3210;48.708;9.030;2023-04-20T21:24:47;4.20;1.00
6355;DHT22;3210;48.708;9.030;2023-04-20T21:27:14;4.20;1.00
6355;DHT22;3210;48.708;9.030;2023-04-20T21:29:41;4.10;1.00
6355;DHT22;3210;48.708;9.030;2023-04-20T21:32:08;4.00;1.00
6355;DHT22;3210;48.708;9.030;2023-04-20T21:34:35;3.90;1.00
6355;DHT22;3210;48.708;9.030;2023-04-20T21:37:01;3.90;5.70
6355;DHT22;3210;48.708;9.030;2023-04-20T21:39:31;3.80;6.30
6355;DHT22;3210;48.708;9.030;2023-04-20T21:41:58;3.70;18.50
6355;DHT22;3210;48.708;9.030;2023-04-20T21:44:25;3.60;51.90
6355;DHT22;3210;48.708;9.030;2023-04-20T21:46:52;3.60;99.90
6355;DHT22;3210;48.708;9.030;2023-04-20T21:49:19;3.50;99.90
6355;DHT22;3210;48.708;9.030;2023-04-20T21:51:46;3.40;99.90
6355;DHT22;3210;48.708;9.030;2023-04-20T21:54:13;3.30;99.90
6355;DHT22;3210;48.708;9.030;2023-04-20T21:56:41;3.20;99.90
6355;DHT22;3210;48.708;9.030;2023-04-20T21:59:08;3.20;99.90
6355;DHT22;3210;48.708;9.030;2023-04-20T22:01:34;3.10;99.90
6355;DHT22;3210;48.708;9.030;2023-04-20T22:04:01;3.20;99.90
6355;DHT22;3210;48.708;9.030;2023-04-20T22:06:28;3.10;99.90
6355;DHT22;3210;48.708;9.030;2023-04-20T22:08:56;3.00;99.90
6355;DHT22;3210;48.708;9.030;2023-04-20T22:11:23;3.00;99.90
6355;DHT22;3210;48.708;9.030;2023-04-20T22:13:51;3.00;99.90
6355;DHT22;3210;48.708;9.030;2023-04-20T22:16:18;2.90;99.90
6355;DHT22;3210;48.708;9.030;2023-04-20T22:18:46;2.90;99.90
6355;DHT22;3210;48.708;9.030;2023-04-20T22:21:13;3.00;1.00
6355;DHT22;3210;48.708;9.030;2023-04-20T22:23:40;3.00;99.90
6355;DHT22;3210;48.708;9.030;2023-04-20T22:26:07;3.00;99.90
6355;DHT22;3210;48.708;9.030;2023-04-20T22:28:33;3.00;99.90
6355;DHT22;3210;48.708;9.030;2023-04-20T22:31:02;3.00;99.90
6355;DHT22;3210;48.708;9.030;2023-04-20T22:33:29;3.00;99.90
6355;DHT22;3210;48.708;9.030;2023-04-20T22:35:55;2.90;99.90
6355;DHT22;3210;48.708;9.030;2023-04-20T22:38:22;2.90;99.90
6355;DHT22;3210;48.708;9.030;2023-04-20T22:40:49;2.80;99.90
6355;DHT22;3210;48.708;9.030;2023-04-20T22:43:16;2.80;99.90
6355;DHT22;3210;48.708;9.030;2023-04-20T22:45:42;2.90;1.00
6355;DHT22;3210;48.708;9.030;2023-04-20T22:48:11;2.90;1.00
6355;DHT22;3210;48.708;9.030;2023-04-20T22:50:37;2.90;1.00
6355;DHT22;3210;48.708;9.030;2023-04-20T22:53:04;2.90;37.70
6355;DHT22;3210;48.708;9.030;2023-04-20T22:55:31;3.00;92.40
6355;DHT22;3210;48.708;9.030;2023-04-20T22:57:58;3.00;99.90
6355;DHT22;3210;48.708;9.030;2023-04-20T23:00:24;3.10;99.90
6355;DHT22;3210;48.708;9.030;2023-04-20T23:02:51;3.20;99.90
6355;DHT22;3210;48.708;9.030;2023-04-20T23:05:19;3.20;99.90
6355;DHT22;3210;48.708;9.030;2023-04-20T23:07:46;3.20;99.90
6355;DHT22;3210;48.708;9.030;2023-04-20T23:10:13;3.30;99.90
6355;DHT22;3210;48.708;9.030;2023-04-20T23:12:41;3.40;99.90
6355;DHT22;3210;48.708;9.030;2023-04-20T23:15:09;3.40;99.90
6355;DHT22;3210;48.708;9.030;2023-04-20T23:17:36;3.50;1.00
6355;DHT22;3210;48.708;9.030;2023-04-20T23:20:04;3.60;1.00
6355;DHT22;3210;48.708;9.030;2023-04-20T23:22:35;3.60;1.00
6355;DHT22;3210;48.708;9.030;2023-04-20T23:25:02;3.60;44.00
6355;DHT22;3210;48.708;9.030;2023-04-20T23:27:29;3.70;56.60
6355;DHT22;3210;48.708;9.030;2023-04-20T23:29:56;3.70;1.00
6355;DHT22;3210;48.708;9.030;2023-04-20T23:32:22;3.60;1.00
6355;DHT22;3210;48.708;9.030;2023-04-20T23:34:50;3.50;1.00
6355;DHT22;3210;48.708;9.030;2023-04-20T23:37:17;3.50;1.00
6355;DHT22;3210;48.708;9.030;2023-04-20T23:39:45;3.60;1.00
6355;DHT22;3210;48.708;9.030;2023-04-20T23:42:12;3.60;5.40
6355;DHT22;3210;48.708;9.030;2023-04-20T23:44:38;3.50;1.00
6355;DHT22;3210;48.708;9.030;2023-04-20T23:47:05;3.40;1.00
6355;DHT22;3210;48.708;9.030;2023-04-20T23:49:32;3.40;1.00
6355;DHT22;3210;48.708;9.030;2023-04-20T23:51:58;3.30;1.00
6355;DHT22;3210;48.708;9.030;2023-04-20T23:54:25;3.30;1.00
6355;DHT22;3210;48.708;9.030;2023-04-20T23:56:54;3.30;34.30
6355;DHT22;3210;48.708;9.030;2023-04-20T23:59:21;3.40;99.90
